Time;durP1;ratioP1;P1;durP2;ratioP2;P2;SDS_P1;SDS_P2;PMS_P1;PMS_P2;Temp;Humidity;BMP_temperature;BMP_pressure;BME280_temperature;BME280_humidity;BME280_pressure;Samples;Min_cycle;Max_cycle;Signal;HPM_P1;HPM_P2
2022/04/04 00:01:00;;;;;;;5.80;2.88;;;4.80;99.90;;;;;;5142542;27;20042;-77
2022/04/04 00:03:26;;;;;;;5.53;2.47;;;4.80;99.90;;;;;;5158738;27;20051;-77
2022/04/04 00:05:52;;;;;;;7.65;2.90;;;4.80;99.90;;;;;;5140594;27;20455;-77
2022/04/04 00:08:18;;;;;;;6.47;2.73;;;4.90;99.90;;;;;;5158163;27;20086;-78
2022/04/04 00:10:43;;;;;;;7.77;2.70;;;4.90;99.90;;;;;;5140402;27;20050;-77
2022/04/04 00:13:09;;;;;;;5.60;2.90;;;4.90;99.90;;;;;;5140180;27;20478;-77
2022/04/04 00:15:35;;;;;;;8.93;3.00;;;4.90;99.90;;;;;;5122900;27;20050;-78
2022/04/04 00:18:09;;;;;;;7.40;2.93;;;4.90;99.90;;;;;;5123418;27;20046;-77
2022/04/04 00:20:35;;;;;;;6.50;2.80;;;4.90;99.90;;;;;;5140054;27;20050;-78
2022/04/04 00:23:01;;;;;;;8.10;3.13;;;4.90;99.90;;;;;;5139412;27;20055;-78
2022/04/04 00:25:27;;;;;;;7.77;4.03;;;5.00;99.90;;;;;;5139878;27;20046;-78
2022/04/04 00:27:52;;;;;;;7.80;4.23;;;5.00;99.90;;;;;;5158406;27;20042;-77
2022/04/04 00:30:18;;;;;;;9.53;3.97;;;5.00;99.90;;;;;;5122645;27;20054;-79
2022/04/04 00:32:44;;;;;;;8.83;4.20;;;5.10;99.90;;;;;;5158117;27;20049;-77
2022/04/04 00:35:10;;;;;;;8.43;4.87;;;5.10;99.90;;;;;;5139725;27;20046;-77
2022/04/04 00:37:39;;;;;;;9.53;5.10;;;5.10;99.90;;;;;;5157899;27;20047;-77
2022/04/04 00:40:07;;;;;;;11.15;5.45;;;5.10;99.90;;;;;;5158254;27;20356;-77
2022/04/04 00:42:33;;;;;;;11.65;6.05;;;5.20;99.90;;;;;;5139464;27;20061;-77
2022/04/04 00:45:00;;;;;;;15.85;7.25;;;5.20;99.90;;;;;;5139402;27;20053;-77
2022/04/04 00:47:26;;;;;;;10.60;7.03;;;5.20;99.90;;;;;;5157659;27;20405;-77
2022/04/04 00:49:51;;;;;;;12.43;7.53;;;5.30;99.90;;;;;;5122495;27;20130;-77
2022/04/04 00:52:18;;;;;;;11.00;7.43;;;5.30;99.90;;;;;;5121964;27;20034;-78
2022/04/04 00:54:45;;;;;;;12.02;7.43;;;5.30;99.90;;;;;;5139390;27;20425;-77
2022/04/04 00:57:11;;;;;;;13.88;7.30;;;5.30;99.90;;;;;;5122279;27;20054;-77
2022/04/04 00:59:38;;;;;;;11.73;7.67;;;5.40;99.90;;;;;;5157381;27;20855;-77
2022/04/04 01:02:05;;;;;;;13.38;7.82;;;5.40;99.90;;;;;;5122284;27;20043;-77
2022/04/04 01:04:31;;;;;;;11.07;8.07;;;5.40;99.90;;;;;;5138451;27;20085;-77
2022/04/04 01:06:59;;;;;;;12.02;8.07;;;5.40;99.90;;;;;;5139293;27;20132;-77
2022/04/04 01:09:25;;;;;;;13.65;8.48;;;5.50;99.90;;;;;;5156924;27;20506;-78
2022/04/04 01:12:10;;;;;;;11.13;8.80;;;5.40;99.90;;;;;;5138999;27;20044;-77
2022/04/04 01:14:41;;;;;;;13.10;7.97;;;5.50;99.90;;;;;;5138764;27;20062;-77
2022/04/04 01:17:08;;;;;;;12.38;8.23;;;5.50;99.90;;;;;;5138919;27;20086;-77
2022/04/04 01:19:34;;;;;;;13.73;8.88;;;5.50;99.90;;;;;;5157078;27;20122;-77
2022/04/04 01:22:04;;;;;;;12.18;8.88;;;5.60;99.90;;;;;;5138951;27;20084;-77
2022/04/04 01:24:30;;;;;;;15.75;9.50;;;5.60;99.90;;;;;;5138789;27;20092;-77
2022/04/04 01:26:55;;;;;;;11.63;8.87;;;5.60;99.90;;;;;;5157000;27;20050;-77
2022/04/04 01:29:21;;;;;;;16.87;9.07;;;5.60;99.90;;;;;;5138640;27;20046;-79
2022/04/04 01:31:48;;;;;;;15.45;9.75;;;5.60;99.90;;;;;;5157210;27;20077;-77
2022/04/04 01:34:14;;;;;;;15.57;9.85;;;5.70;99.90;;;;;;5157175;27;20055;-77
2022/04/04 01:36:40;;;;;;;13.53;9.30;;;5.70;99.90;;;;;;5156770;27;20458;-77
2022/04/04 01:39:06;;;;;;;17.00;9.40;;;5.70;99.90;;;;;;5156941;27;20092;-77
2022/04/04 01:41:31;;;;;;;13.53;9.67;;;5.70;99.90;;;;;;5156587;27;20276;-77
2022/04/04 01:43:57;;;;;;;15.57;10.07;;;5.70;99.90;;;;;;5138745;27;20145;-77
2022/04/04 01:46:27;;;;;;;15.70;9.57;;;5.70;99.90;;;;;;5121074;27;20425;-78
2022/04/04 01:49:01;;;;;;;13.10;9.70;;;5.70;99.90;;;;;;5156816;27;20079;-77
2022/04/04 01:51:27;;;;;;;15.55;10.32;;;5.70;99.90;;;;;;5156509;27;20134;-78
2022/04/04 01:53:54;;;;;;;14.85;10.32;;;5.70;99.90;;;;;;5156769;27;20046;-77
2022/04/04 01:56:21;;;;;;;14.90;10.30;;;5.80;99.90;;;;;;5156857;27;20043;-77
2022/04/04 01:58:47;;;;;;;16.67;10.68;;;5.80;99.90;;;;;;5120571;27;20571;-78
2022/04/04 02:01:14;;;;;;;19.55;12.02;;;5.80;99.90;;;;;;5121454;27;20133;-77
2022/04/04 02:03:43;;;;;;;16.52;12.88;;;5.80;99.90;;;;;;5156259;27;20137;-78
2022/04/04 02:06:09;;;;;;;17.17;12.45;;;5.80;99.90;;;;;;5158511;27;20046;-77
2022/04/04 02:08:35;;;;;;;18.70;12.32;;;5.80;99.90;;;;;;5156167;27;20047;-77
2022/04/04 02:11:02;;;;;;;16.90;11.70;;;5.80;99.90;;;;;;5156684;27;20045;-77
2022/04/04 02:13:28;;;;;;;15.68;11.32;;;5.70;99.90;;;;;;5155681;27;20549;-78
2022/04/04 02:15:56;;;;;;;14.45;11.00;;;5.70;99.90;;;;;;5156395;27;20085;-77
2022/04/04 02:18:22;;;;;;;15.65;10.65;;;5.80;99.90;;;;;;5121148;27;20050;-77
2022/04/04 02:20:49;;;;;;;15.82;10.77;;;5.80;99.90;;;;;;5155411;27;20050;-78
2022/04/04 02:23:18;;;;;;;14.88;10.57;;;5.80;99.90;;;;;;5156410;27;20054;-77
2022/04/04 02:25:47;;;;;;;14.93;10.27;;;5.80;99.90;;;;;;5137340;27;20077;-78
2022/04/04 02:28:13;;;;;;;13.57;10.45;;;5.80;99.90;;;;;;5137937;27;20089;-78
2022/04/04 02:30:40;;;;;;;14.65;9.98;;;5.80;99.90;;;;;;5137036;27;20041;-78
2022/04/04 02:33:06;;;;;;;15.82;10.45;;;5.80;99.90;;;;;;5137660;27;20122;-78
2022/04/04 02:35:32;;;;;;;18.17;10.98;;;5.90;99.90;;;;;;5155764;27;20055;-78
2022/04/04 02:37:57;;;;;;;17.73;11.27;;;5.90;99.90;;;;;;5155647;27;20043;-78
2022/04/04 02:40:23;;;;;;;17.70;11.47;;;5.90;99.90;;;;;;5137567;27;20042;-77
2022/04/04 02:42:49;;;;;;;17.43;12.07;;;5.90;99.90;;;;;;5155301;27;20435;-78
2022/04/04 02:45:15;;;;;;;21.35;11.82;;;5.90;99.90;;;;;;5155732;27;20058;-77
2022/04/04 02:47:42;;;;;;;16.87;11.90;;;5.90;99.90;;;;;;5155418;27;20042;-77
2022/04/04 02:50:09;;;;;;;16.35;11.73;;;5.90;99.90;;;;;;5155877;27;20272;-77
2022/04/04 02:52:35;;;;;;;19.65;12.65;;;6.00;99.90;;;;;;5136985;27;20053;-78
2022/04/04 02:56:28;;;;;;;22.20;12.07;;;5.90;99.90;;;;;;5136985;27;20046;-77
2022/04/04 02:57:47;;;;;;;16.70;11.55;;;6.00;99.90;;;;;;5154383;27;20051;-78
2022/04/04 03:00:14;;;;;;;19.80;13.15;;;6.00;99.90;;;;;;5136542;27;20125;-77
2022/04/04 03:02:39;;;;;;;18.73;12.80;;;6.00;99.90;;;;;;5136396;27;20057;-78
2022/04/04 03:05:05;;;;;;;18.10;12.67;;;6.00;99.90;;;;;;5155237;27;20043;-77
2022/04/04 03:07:31;;;;;;;17.33;12.30;;;6.00;99.90;;;;;;5136438;27;20042;-79
2022/04/04 03:09:57;;;;;;;18.00;12.67;;;6.10;99.90;;;;;;5155200;27;20034;-78
2022/04/04 03:12:22;;;;;;;20.07;12.77;;;6.00;99.90;;;;;;5136797;27;20470;-78
2022/04/04 03:14:48;;;;;;;18.23;12.10;;;6.00;99.90;;;;;;5154848;27;20111;-78
2022/04/04 03:17:14;;;;;;;20.43;12.90;;;6.10;99.90;;;;;;5155306;27;20535;-77
2022/04/04 03:19:39;;;;;;;20.40;12.90;;;6.10;99.90;;;;;;5136280;27;20047;-78
2022/04/04 03:22:05;;;;;;;18.97;12.83;;;6.10;99.90;;;;;;5154823;27;20043;-77
2022/04/04 03:24:31;;;;;;;21.03;12.40;;;6.10;99.90;;;;;;5119513;27;20045;-78
2022/04/04 03:26:57;;;;;;;18.95;12.88;;;6.10;99.90;;;;;;5136879;27;20078;-78
2022/04/04 03:29:23;;;;;;;18.33;13.60;;;6.10;99.90;;;;;;5154988;27;20085;-78
2022/04/04 03:31:48;;;;;;;24.77;12.37;;;6.10;99.90;;;;;;5119099;27;20385;-78
2022/04/04 03:34:14;;;;;;;21.00;14.63;;;6.10;99.90;;;;;;5154315;27;20053;-77
2022/04/04 03:36:40;;;;;;;18.60;13.70;;;6.00;99.90;;;;;;5136472;27;20039;-77
2022/04/04 03:39:06;;;;;;;18.93;13.13;;;6.10;99.90;;;;;;5154898;27;20475;-77
2022/04/04 03:41:32;;;;;;;23.90;15.55;;;6.10;99.90;;;;;;5154785;27;20039;-77
2022/04/04 03:43:57;;;;;;;21.60;13.80;;;6.10;99.90;;;;;;5136312;27;20080;-77
2022/04/04 03:46:23;;;;;;;19.53;13.73;;;6.10;99.90;;;;;;5136163;27;20042;-77
2022/04/04 03:48:49;;;;;;;22.87;12.93;;;6.10;99.90;;;;;;5153633;27;20117;-77
2022/04/04 03:51:15;;;;;;;19.97;13.30;;;6.10;99.90;;;;;;5135987;27;20042;-77
2022/04/04 03:53:40;;;;;;;19.20;13.50;;;6.10;99.90;;;;;;5135470;27;20054;-77
2022/04/04 03:56:07;;;;;;;19.70;14.83;;;6.00;99.90;;;;;;5154214;27;20535;-76
2022/04/04 03:58:33;;;;;;;25.23;14.23;;;6.00;99.90;;;;;;5154243;27;20050;-76
2022/04/04 04:00:59;;;;;;;19.40;13.63;;;6.00;99.90;;;;;;5118522;27;20039;-77
2022/04/04 04:03:25;;;;;;;26.50;14.60;;;6.00;99.90;;;;;;5154458;27;20552;-77
2022/04/04 04:06:11;;;;;;;21.80;13.90;;;6.00;99.90;;;;;;5153972;27;20432;-78
2022/04/04 04:08:36;;;;;;;20.77;13.27;;;6.00;99.90;;;;;;5154406;27;20502;-79
2022/04/04 04:11:02;;;;;;;22.02;13.85;;;6.00;99.90;;;;;;5154173;27;20043;-78
2022/04/04 04:13:28;;;;;;;20.53;11.43;;;6.00;99.90;;;;;;5155900;27;20130;-77
2022/04/04 04:15:53;;;;;;;23.13;11.50;;;6.00;99.90;;;;;;5154411;27;20091;-77
2022/04/04 04:18:19;;;;;;;21.33;11.63;;;6.10;99.90;;;;;;5135916;27;20078;-76
2022/04/04 04:20:45;;;;;;;17.23;10.57;;;6.00;99.90;;;;;;5135690;27;20078;-76
2022/04/04 04:23:13;;;;;;;15.17;9.73;;;6.00;99.90;;;;;;5154411;27;20057;-77
2022/04/04 04:25:38;;;;;;;17.33;9.98;;;6.00;99.90;;;;;;5135860;27;20046;-79
2022/04/04 04:28:06;;;;;;;15.50;8.70;;;5.90;99.90;;;;;;5154016;27;20089;-77
2022/04/04 04:30:32;;;;;;;19.90;9.38;;;6.00;99.90;;;;;;5135670;27;20498;-77
2022/04/04 04:32:59;;;;;;;16.05;9.35;;;6.00;99.90;;;;;;5135564;27;20060;-77
2022/04/04 04:35:25;;;;;;;12.57;8.07;;;5.90;99.90;;;;;;5135758;27;20393;-77
2022/04/04 04:37:51;;;;;;;13.60;8.38;;;6.00;99.90;;;;;;5118079;27;20050;-77
2022/04/04 04:40:18;;;;;;;13.50;8.45;;;6.00;99.90;;;;;;5153894;27;20061;-77
2022/04/04 04:42:45;;;;;;;15.05;7.45;;;6.00;99.90;;;;;;5153402;27;20042;-77
2022/04/04 04:45:12;;;;;;;13.68;7.45;;;5.90;99.90;;;;;;5156962;27;20046;-76
2022/04/04 04:47:38;;;;;;;14.27;7.82;;;5.90;99.90;;;;;;5139571;27;20051;-76
2022/04/04 04:50:05;;;;;;;14.68;8.70;;;5.90;99.90;;;;;;5157556;27;20042;-76
2022/04/04 04:52:32;;;;;;;15.10;8.15;;;5.90;99.90;;;;;;5139428;27;20133;-76
2022/04/04 04:55:00;;;;;;;13.88;7.70;;;5.90;99.90;;;;;;5157402;27;20151;-76
2022/04/04 04:57:25;;;;;;;16.92;8.43;;;5.90;99.90;;;;;;5158010;27;20057;-76
2022/04/04 04:59:51;;;;;;;13.30;8.30;;;5.90;99.90;;;;;;5157441;27;20125;-77
2022/04/04 05:02:17;;;;;;;12.77;8.40;;;5.90;99.90;;;;;;5139606;27;20050;-77
2022/04/04 05:04:43;;;;;;;14.63;8.30;;;5.90;99.90;;;;;;5121805;27;20104;-78
2022/04/04 05:07:08;;;;;;;22.67;10.10;;;5.90;99.90;;;;;;5157843;27;20118;-77
2022/04/04 05:09:35;;;;;;;15.43;8.80;;;5.90;99.90;;;;;;5139266;27;20478;-77
2022/04/04 05:12:01;;;;;;;17.45;8.93;;;5.90;99.90;;;;;;5156699;27;20069;-77
2022/04/04 05:14:27;;;;;;;17.40;9.77;;;5.90;99.90;;;;;;5138705;27;20050;-77
2022/04/04 05:16:53;;;;;;;25.57;10.33;;;5.90;99.90;;;;;;5156789;27;20039;-77
2022/04/04 05:19:22;;;;;;;18.50;9.43;;;5.90;99.90;;;;;;5156868;27;20292;-77
2022/04/04 05:21:49;;;;;;;15.73;9.90;;;5.90;99.90;;;;;;5156665;27;20038;-77
2022/04/04 05:24:15;;;;;;;16.17;8.98;;;5.90;99.90;;;;;;5157303;27;20099;-77
2022/04/04 05:26:41;;;;;;;16.30;8.00;;;5.90;99.90;;;;;;5157069;27;20125;-77
2022/04/04 05:29:07;;;;;;;14.40;6.37;;;5.80;99.90;;;;;;5138013;27;20531;-77
2022/04/04 05:31:34;;;;;;;10.30;5.37;;;5.80;99.90;;;;;;5138521;27;20057;-76
2022/04/04 05:34:01;;;;;;;11.93;4.95;;;5.80;99.90;;;;;;5138009;27;20095;-78
2022/04/04 05:36:28;;;;;;;11.63;5.35;;;5.80;99.90;;;;;;5156692;27;20047;-77
2022/04/04 05:38:54;;;;;;;13.10;5.55;;;5.70;99.90;;;;;;5155980;27;20509;-77
2022/04/04 05:41:20;;;;;;;13.85;6.13;;;5.70;99.90;;;;;;5157024;27;20049;-77
2022/04/04 05:43:47;;;;;;;9.00;4.00;;;5.70;99.90;;;;;;5156550;27;20042;-78
2022/04/04 05:46:17;;;;;;;11.05;3.90;;;5.70;99.90;;;;;;5138492;27;20496;-76
2022/04/04 05:48:44;;;;;;;9.82;4.07;;;5.70;99.90;;;;;;5138136;27;20046;-76
2022/04/04 05:51:10;;;;;;;9.18;3.30;;;5.60;99.90;;;;;;5156338;27;20475;-77
2022/04/04 05:53:36;;;;;;;8.50;2.45;;;5.70;99.90;;;;;;5121157;27;20046;-76
2022/04/04 05:56:02;;;;;;;7.03;2.78;;;5.60;99.90;;;;;;5119587;27;20107;-76
2022/04/04 05:58:28;;;;;;;5.38;2.42;;;5.60;99.90;;;;;;5137933;27;20482;-76
2022/04/04 06:00:54;;;;;;;12.43;3.03;;;5.50;99.90;;;;;;5120396;27;20042;-76
2022/04/04 06:03:20;;;;;;;9.70;3.08;;;5.50;99.90;;;;;;5138224;27;20362;-76
2022/04/04 06:05:49;;;;;;;8.03;3.13;;;5.50;99.90;;;;;;5138170;27;20121;-76
2022/04/04 06:08:16;;;;;;;9.93;2.92;;;5.50;99.90;;;;;;5138312;27;20412;-76
2022/04/04 06:10:45;;;;;;;8.73;2.97;;;5.50;99.90;;;;;;5156028;27;20046;-76
2022/04/04 06:13:15;;;;;;;10.23;2.90;;;5.50;99.90;;;;;;5137870;27;20466;-76
2022/04/04 06:15:42;;;;;;;7.50;3.15;;;5.50;99.90;;;;;;5156314;27;20047;-76
2022/04/04 06:18:08;;;;;;;7.75;2.85;;;5.50;99.90;;;;;;5155833;27;20039;-76
2022/04/04 06:20:35;;;;;;;7.80;3.28;;;5.50;99.90;;;;;;5156186;27;20546;-76
2022/04/04 06:23:00;;;;;;;7.22;3.17;;;5.50;99.90;;;;;;5156920;27;20051;-76
2022/04/04 06:25:26;;;;;;;7.93;3.27;;;5.50;99.90;;;;;;5137902;27;20496;-76
2022/04/04 06:27:52;;;;;;;8.73;3.27;;;5.50;99.90;;;;;;5155799;27;20046;-76
2022/04/04 06:30:18;;;;;;;9.18;3.40;;;5.60;99.90;;;;;;5120988;27;20091;-76
2022/04/04 06:32:44;;;;;;;9.52;3.78;;;5.60;99.90;;;;;;5137796;27;20471;-76
2022/04/04 06:35:12;;;;;;;7.55;3.63;;;5.60;99.90;;;;;;5137346;27;20094;-76
2022/04/04 06:37:37;;;;;;;10.05;3.97;;;5.60;99.90;;;;;;5155833;27;20134;-75
2022/04/04 06:40:04;;;;;;;7.77;4.10;;;5.60;99.90;;;;;;5102986;27;20039;-76
2022/04/04 06:42:38;;;;;;;11.88;4.95;;;5.70;99.90;;;;;;5137503;27;20088;-76
2022/04/04 06:45:05;;;;;;;10.73;4.40;;;5.70;99.90;;;;;;5155177;27;20098;-76
2022/04/04 06:47:31;;;;;;;13.93;4.53;;;5.70;99.90;;;;;;5155261;27;20611;-76
2022/04/04 06:49:58;;;;;;;13.95;5.22;;;5.70;99.90;;;;;;5154973;27;20038;-76
2022/04/04 06:52:24;;;;;;;9.02;5.13;;;5.70;99.90;;;;;;5155185;27;20505;-76
2022/04/04 06:54:49;;;;;;;12.93;5.70;;;5.70;99.90;;;;;;5137343;27;20043;-76
2022/04/04 06:57:16;;;;;;;11.90;5.83;;;5.80;99.90;;;;;;5136472;27;20276;-77
2022/04/04 06:59:42;;;;;;;14.02;5.82;;;5.80;99.90;;;;;;5136589;27;20042;-77
2022/04/04 07:02:09;;;;;;;12.35;6.43;;;5.80;99.90;;;;;;5155054;27;20046;-76
2022/04/04 07:04:37;;;;;;;15.13;6.15;;;5.80;99.90;;;;;;5155224;27;20043;-76
2022/04/04 07:07:03;;;;;;;12.82;6.55;;;5.80;99.90;;;;;;5136432;27;20039;-77
2022/04/04 07:09:29;;;;;;;16.65;6.05;;;5.80;99.90;;;;;;5155087;27;20470;-76
2022/04/04 07:11:56;;;;;;;12.53;7.13;;;5.80;99.90;;;;;;5119090;27;20054;-76
2022/04/04 07:14:22;;;;;;;12.10;7.72;;;5.90;99.90;;;;;;5165893;27;20049;-77
2022/04/04 07:16:52;;;;;;;16.27;8.05;;;5.90;99.90;;;;;;5176099;27;20146;-78
2022/04/04 07:19:19;;;;;;;16.23;7.93;;;5.90;99.90;;;;;;5140519;27;20047;-78
2022/04/04 07:21:45;;;;;;;17.40;8.50;;;5.90;99.90;;;;;;5175915;27;20089;-78
2022/04/04 07:24:11;;;;;;;15.83;7.93;;;5.90;99.90;;;;;;5156439;27;20092;-77
2022/04/04 07:26:36;;;;;;;15.77;8.90;;;6.00;99.90;;;;;;5157364;27;20147;-77
2022/04/04 07:29:02;;;;;;;16.33;8.73;;;;;;;;;;5175572;27;20042;-77
2022/04/04 07:31:29;;;;;;;13.40;7.57;;;6.10;99.90;;;;;;5175664;27;20042;-78
2022/04/04 07:33:55;;;;;;;18.58;9.20;;;6.10;99.90;;;;;;5157266;27;20046;-78
2022/04/04 07:36:21;;;;;;;19.27;9.10;;;6.10;99.90;;;;;;5175156;27;20065;-79
2022/04/04 07:38:48;;;;;;;16.33;7.93;;;6.10;99.90;;;;;;5175610;27;20101;-79
2022/04/04 07:41:14;;;;;;;16.52;8.50;;;6.10;99.90;;;;;;5156786;27;20060;-78
2022/04/04 07:43:39;;;;;;;11.90;7.40;;;6.10;99.90;;;;;;5175633;27;20042;-78
2022/04/04 07:46:05;;;;;;;15.83;7.87;;;6.20;99.90;;;;;;5175161;27;20052;-78
2022/04/04 07:48:32;;;;;;;17.02;8.68;;;6.20;99.90;;;;;;5156975;27;20037;-77
2022/04/04 07:50:58;;;;;;;20.83;7.65;;;6.20;99.90;;;;;;5140059;27;20060;-82
2022/04/04 07:53:24;;;;;;;16.38;7.57;;;6.20;99.90;;;;;;5175633;27;20046;-78
2022/04/04 07:55:50;;;;;;;12.00;7.10;;;6.20;99.90;;;;;;5156811;27;20470;-77
2022/04/04 07:58:17;;;;;;;13.43;6.37;;;6.20;99.90;;;;;;5156338;27;20079;-76
2022/04/04 08:00:44;;;;;;;13.23;7.25;;;6.20;99.90;;;;;;5175438;27;20305;-77
2022/04/04 08:03:10;;;;;;;12.32;6.82;;;6.30;99.90;;;;;;5175018;27;20569;-76
2022/04/04 08:05:36;;;;;;;13.18;7.13;;;6.30;99.90;;;;;;5174972;27;20562;-76
2022/04/04 08:08:02;;;;;;;13.73;7.07;;;6.30;99.90;;;;;;5174763;27;20046;-76
2022/04/04 08:10:27;;;;;;;13.20;6.87;;;6.30;99.90;;;;;;5175286;27;20042;-75
2022/04/04 08:12:54;;;;;;;12.63;6.33;;;6.30;99.90;;;;;;5156624;27;20050;-76
2022/04/04 08:15:20;;;;;;;8.80;5.72;;;6.30;99.90;;;;;;5174936;27;20046;-76
2022/04/04 08:17:46;;;;;;;13.93;5.83;;;6.30;99.90;;;;;;5156625;27;20453;-76
2022/04/04 08:20:13;;;;;;;11.90;5.87;;;6.40;99.90;;;;;;5178145;27;20295;-79
2022/04/04 08:22:43;;;;;;;12.15;5.60;;;6.40;99.90;;;;;;5179510;27;20061;-78
2022/04/04 08:25:10;;;;;;;13.00;5.45;;;6.40;99.90;;;;;;5179016;27;20516;-77
2022/04/04 08:27:36;;;;;;;11.48;5.72;;;6.40;99.90;;;;;;5143703;27;20049;-75
2022/04/04 08:30:06;;;;;;;11.00;5.93;;;6.40;99.90;;;;;;5181537;27;20494;-81
2022/04/04 08:32:36;;;;;;;12.07;4.93;;;6.40;99.90;;;;;;5143773;27;20042;-78
2022/04/04 08:35:03;;;;;;;9.50;4.90;;;6.40;99.90;;;;;;5160714;27;20042;-82
2022/04/04 08:37:29;;;;;;;12.93;5.32;;;6.50;99.90;;;;;;5160802;27;20042;-77
2022/04/04 08:39:55;;;;;;;12.40;4.87;;;6.50;99.90;;;;;;5160734;27;20042;-82
2022/04/04 08:42:26;;;;;;;11.43;5.07;;;6.50;99.90;;;;;;5174709;27;20050;-81
2022/04/04 08:44:58;;;;;;;8.90;4.82;;;6.50;99.90;;;;;;5159308;27;20061;-78
2022/04/04 08:47:25;;;;;;;14.32;6.28;;;6.50;99.90;;;;;;5177606;27;20056;-81
2022/04/04 08:49:52;;;;;;;9.52;4.35;;;6.50;99.90;;;;;;5178059;27;20042;-83
2022/04/04 08:52:18;;;;;;;8.25;4.10;;;6.60;99.90;;;;;;5159445;27;20048;-80
2022/04/04 08:54:45;;;;;;;9.05;4.75;;;6.60;99.90;;;;;;5175726;27;20553;-73
2022/04/04 08:57:10;;;;;;;11.52;4.40;;;6.60;99.90;;;;;;5168630;27;20048;-81
2022/04/04 08:59:36;;;;;;;10.23;4.50;;;6.60;99.90;;;;;;5166853;27;20042;-80
2022/04/04 09:02:02;;;;;;;9.83;4.90;;;6.60;99.90;;;;;;5167938;27;20140;-82
2022/04/04 09:04:29;;;;;;;10.32;4.28;;;6.60;99.90;;;;;;5149966;27;20046;-81
2022/04/04 09:06:57;;;;;;;9.00;4.53;;;6.70;99.90;;;;;;5166625;27;20113;-81
2022/04/04 09:09:39;;;;;;;9.35;3.83;;;6.70;99.90;;;;;;5167276;27;20481;-80
2022/04/04 09:12:22;;;;;;;10.85;4.20;;;6.70;99.90;;;;;;5167518;27;20074;-77
2022/04/04 09:14:51;;;;;;;9.43;3.90;;;6.70;99.90;;;;;;5160148;27;20035;-82
2022/04/04 09:17:32;;;;;;;10.50;4.35;;;6.80;99.90;;;;;;5178186;27;20043;-81
2022/04/04 09:19:58;;;;;;;10.18;3.42;;;6.80;99.90;;;;;;5178463;27;20046;-82
2022/04/04 09:22:25;;;;;;;10.73;4.25;;;6.80;99.90;;;;;;5177872;27;20099;-82
2022/04/04 09:24:56;;;;;;;10.90;3.83;;;6.80;99.90;;;;;;5160005;27;20129;-83
2022/04/04 09:27:29;;;;;;;6.78;3.22;;;6.80;99.90;;;;;;5177869;27;20122;-83
2022/04/04 09:30:06;;;;;;;8.45;3.55;;;6.90;99.90;;;;;;5177582;27;20106;-74
2022/04/04 09:32:40;;;;;;;9.63;3.28;;;6.90;99.90;;;;;;5159353;27;20153;-78
2022/04/04 09:35:14;;;;;;;9.43;2.92;;;6.90;99.90;;;;;;5174884;27;20041;-75
2022/04/04 09:37:48;;;;;;;8.90;3.60;;;7.00;99.90;;;;;;5178302;27;20042;-75
2022/04/04 09:40:16;;;;;;;10.30;3.95;;;6.90;99.90;;;;;;5158906;27;20098;-74
2022/04/04 09:42:56;;;;;;;11.20;3.63;;;7.00;99.90;;;;;;5178040;27;20054;-74
2022/04/04 09:45:24;;;;;;;10.18;3.72;;;7.00;99.90;;;;;;5158904;27;20411;-76
2022/04/04 09:47:52;;;;;;;8.80;3.80;;;7.00;99.90;;;;;;5176946;27;20416;-77
2022/04/04 09:50:30;;;;;;;7.97;4.43;;;7.00;99.90;;;;;;5177194;27;20453;-77
2022/04/04 09:52:57;;;;;;;8.18;3.72;;;7.10;99.90;;;;;;5177688;27;20085;-77
2022/04/04 09:55:34;;;;;;;12.25;3.80;;;7.10;99.90;;;;;;5158861;27;20046;-77
2022/04/04 09:58:06;;;;;;;10.15;3.42;;;7.20;99.90;;;;;;5177591;27;20083;-76
2022/04/04 10:00:34;;;;;;;10.23;3.17;;;7.10;99.90;;;;;;5177066;27;20118;-76
2022/04/04 10:03:01;;;;;;;11.77;3.50;;;7.10;99.90;;;;;;5177287;27;20046;-77
2022/04/04 10:05:28;;;;;;;10.82;3.88;;;7.10;99.90;;;;;;5177071;27;20046;-77
2022/04/04 10:07:56;;;;;;;8.57;3.00;;;7.10;99.90;;;;;;5177416;27;20049;-76
2022/04/04 10:10:27;;;;;;;8.60;3.63;;;7.20;99.90;;;;;;5158428;27;20046;-77
2022/04/04 10:12:54;;;;;;;10.63;3.60;;;7.20;99.90;;;;;;5176844;27;20042;-76
2022/04/04 10:15:21;;;;;;;10.18;3.53;;;7.20;99.90;;;;;;5176959;27;20129;-77
2022/04/04 10:17:46;;;;;;;10.13;3.03;;;7.20;99.90;;;;;;5177317;27;20054;-76
2022/04/04 10:20:13;;;;;;;8.50;3.10;;;7.20;99.90;;;;;;5176825;27;20046;-81
2022/04/04 10:22:39;;;;;;;9.40;3.72;;;7.30;99.90;;;;;;5177115;27;20105;-76
2022/04/04 10:25:07;;;;;;;10.50;3.00;;;7.50;99.90;;;;;;5177023;27;20556;-76
2022/04/04 10:27:37;;;;;;;8.90;3.20;;;;;;;;;;5176629;27;20052;-76
2022/04/04 10:30:05;;;;;;;7.82;2.35;;;;;;;;;;5176987;27;20174;-76
2022/04/04 10:32:32;;;;;;;7.60;2.63;;;;;;;;;;5176499;27;20390;-76
2022/04/04 10:34:58;;;;;;;7.57;2.28;;;;;;;;;;5158436;27;20056;-76
2022/04/04 10:37:31;;;;;;;9.02;2.65;;;;;;;;;;5157712;27;20046;-76
2022/04/04 10:39:57;;;;;;;10.90;2.50;;;7.50;99.90;;;;;;5141529;27;20129;-76
2022/04/04 10:42:38;;;;;;;11.17;3.07;;;7.50;99.90;;;;;;5175957;27;20081;-76
2022/04/04 10:45:08;;;;;;;10.13;2.70;;;7.50;99.90;;;;;;5158436;27;20042;-76
2022/04/04 10:47:39;;;;;;;8.18;2.33;;;7.50;99.90;;;;;;5157815;27;20149;-76
2022/04/04 10:50:24;;;;;;;7.65;2.33;;;7.50;99.90;;;;;;5176535;27;20063;-76
2022/04/04 10:52:52;;;;;;;5.40;1.92;;;7.50;99.90;;;;;;5176268;27;20057;-76
2022/04/04 10:55:27;;;;;;;8.95;2.00;;;7.60;99.90;;;;;;5175872;27;20615;-76
2022/04/04 10:58:15;;;;;;;7.10;1.70;;;;;;;;;;5176326;27;20038;-75
2022/04/04 11:00:59;;;;;;;6.43;1.45;;;;;;;;;;5176144;27;20068;-76
2022/04/04 11:03:35;;;;;;;6.72;1.90;;;;;;;;;;5157416;27;20042;-77
2022/04/04 11:09:00;;;;;;;7.60;1.77;;;;;;;;;;5175992;27;20489;-79
2022/04/04 11:11:54;;;;;;;5.53;1.60;;;;;;;;;;5175562;27;20556;-75
2022/04/04 11:14:39;;;;;;;3.63;1.38;;;;;;;;;;5154019;27;20057;-74
2022/04/04 11:17:13;;;;;;;4.10;1.50;;;;;;;;;;5176152;27;20082;-75
2022/04/04 11:19:44;;;;;;;3.97;1.33;;;;;;;;;;5175525;27;20042;-75
2022/04/04 11:22:22;;;;;;;5.97;1.70;;;;;;;;;;5175820;27;20114;-74
2022/04/04 11:24:53;;;;;;;4.55;1.50;;;;;;;;;;5175950;27;20050;-74
2022/04/04 11:27:20;;;;;;;5.70;1.80;;;;;;;;;;5156891;27;20049;-85
2022/04/04 11:29:47;;;;;;;4.75;1.67;;;;;;;;;;5175931;27;20077;-77
2022/04/04 11:32:16;;;;;;;6.30;1.75;;;;;;;;;;5175942;27;20046;-75
2022/04/04 11:34:43;;;;;;;5.70;1.50;;;;;;;;;;5175433;27;20061;-75
2022/04/04 11:37:17;;;;;;;4.10;1.52;;;;;;;;;;5175760;27;20044;-80
2022/04/04 11:39:44;;;;;;;4.63;1.40;;;;;;;;;;5156774;27;20500;-75
2022/04/04 11:42:10;;;;;;;6.65;1.35;;;;;;;;;;5157344;27;20394;-75
2022/04/04 11:44:44;;;;;;;4.05;1.40;;;;;;;;;;5175308;27;20125;-75
2022/04/04 11:47:10;;;;;;;2.83;1.30;;;;;;;;;;5176132;27;20046;-79
2022/04/04 11:49:37;;;;;;;3.65;1.45;;;;;;;;;;5156871;27;20508;-80
2022/04/04 11:52:06;;;;;;;2.78;1.33;;;;;;;;;;5175895;27;20114;-79
2022/04/04 11:54:49;;;;;;;4.85;1.60;;;8.30;99.90;;;;;;5174514;27;20046;-81
2022/04/04 11:57:15;;;;;;;4.47;1.90;;;8.30;99.90;;;;;;5175781;27;20093;-79
2022/04/04 11:59:43;;;;;;;4.37;1.70;;;8.30;99.90;;;;;;5175358;27;20546;-80
2022/04/04 12:02:11;;;;;;;5.03;1.90;;;8.30;99.90;;;;;;5175424;27;20046;-80
2022/04/04 12:04:37;;;;;;;8.05;2.05;;;8.20;99.90;;;;;;5139657;27;20148;-79
2022/04/04 12:07:04;;;;;;;5.00;2.20;;;8.20;99.90;;;;;;5175570;27;20046;-80
2022/04/04 12:09:31;;;;;;;5.53;2.58;;;8.20;99.90;;;;;;5156898;27;20048;-79
2022/04/04 12:12:08;;;;;;;7.63;2.85;;;8.20;99.90;;;;;;5175460;27;20050;-83
2022/04/04 12:14:37;;;;;;;7.38;3.15;;;8.20;99.90;;;;;;5175243;27;20381;-73
2022/04/04 12:17:07;;;;;;;8.23;3.50;;;8.30;99.90;;;;;;5157041;27;20477;-85
2022/04/04 12:19:47;;;;;;;7.63;3.00;;;8.30;99.90;;;;;;5174960;27;20042;-84
2022/04/04 12:25:00;;;;;;;8.60;3.60;;;8.30;99.90;;;;;;5175241;27;20050;-84
2022/04/04 12:27:26;;;;;;;10.25;4.15;;;8.30;99.90;;;;;;5175051;27;20122;-84
2022/04/04 12:30:05;;;;;;;7.97;4.17;;;8.30;99.90;;;;;;5175495;27;20103;-80
2022/04/04 12:32:38;;;;;;;7.30;3.80;;;8.30;99.90;;;;;;5156367;27;20085;-81
2022/04/04 12:35:06;;;;;;;7.15;3.72;;;8.40;99.90;;;;;;5156477;27;20050;-79
2022/04/04 12:37:43;;;;;;;6.55;3.70;;;8.40;99.90;;;;;;5174913;27;20054;-81
2022/04/04 12:40:17;;;;;;;8.63;3.53;;;8.50;99.90;;;;;;5175343;27;20050;-77
2022/04/04 12:42:45;;;;;;;8.02;3.50;;;8.50;99.90;;;;;;5170795;27;20041;-81
2022/04/04 12:45:11;;;;;;;8.30;3.80;;;8.50;99.90;;;;;;5173371;27;20105;-82
2022/04/04 12:48:13;;;;;;;8.88;4.15;;;8.70;99.90;;;;;;5173225;27;20064;-80
2022/04/04 12:50:43;;;;;;;10.82;4.53;;;8.70;99.90;;;;;;5071207;28;20425;-79
2022/04/04 12:53:12;;;;;;;8.48;4.45;;;8.70;99.90;;;;;;5152992;27;20050;-79
2022/04/04 12:55:40;;;;;;;10.17;5.00;;;8.80;99.90;;;;;;5153909;27;20050;-79
2022/04/04 12:58:20;;;;;;;13.13;5.55;;;8.80;99.90;;;;;;5155655;27;20287;-75
2022/04/04 13:00:47;;;;;;;11.27;5.07;;;;;;;;;;5173834;27;20074;-84
2022/04/04 13:03:26;;;;;;;13.43;5.97;;;8.70;99.90;;;;;;5137852;27;20319;-81
2022/04/04 13:06:01;;;;;;;14.07;6.35;;;8.80;99.90;;;;;;5176527;27;20280;-80